createdAt,value
2023-10-15T00:00:41.199Z,9.80
2023-10-15T00:03:29.866Z,8.60
2023-10-15T00:05:58.162Z,6.50
2023-10-15T00:08:26.560Z,7.00
2023-10-15T00:10:54.738Z,8.10
2023-10-15T00:13:23.012Z,7.00
2023-10-15T00:15:52.514Z,5.40
2023-10-15T00:18:20.717Z,6.30
2023-10-15T00:20:48.859Z,7.20
2023-10-15T00:23:17.080Z,5.60
2023-10-15T00:25:49.188Z,6.00
2023-10-15T00:28:17.677Z,10.40
2023-10-15T00:30:46.066Z,8.00
2023-10-15T00:33:14.406Z,12.20
2023-10-15T00:35:51.389Z,6.80
2023-10-15T00:38:20.855Z,9.00
2023-10-15T00:41:02.013Z,7.30
2023-10-15T00:43:31.950Z,9.60
2023-10-15T00:46:02.544Z,7.30
2023-10-15T00:48:37.826Z,7.20
2023-10-15T00:51:12.866Z,8.50
2023-10-15T00:53:55.937Z,8.10
2023-10-15T00:56:29.330Z,6.70
2023-10-15T00:59:10.052Z,7.70
2023-10-15T01:01:44.080Z,6.30
2023-10-15T01:04:12.557Z,6.40
2023-10-15T01:06:44.831Z,8.70
2023-10-15T01:09:41.170Z,6.40
2023-10-15T01:12:26.476Z,9.90
2023-10-15T01:14:54.610Z,8.80
2023-10-15T01:17:27.387Z,11.60
2023-10-15T01:19:55.824Z,9.30
2023-10-15T01:22:25.393Z,6.00
2023-10-15T01:24:56.986Z,8.30
2023-10-15T01:27:32.000Z,8.60
2023-10-15T01:30:01.183Z,8.50
2023-10-15T01:32:33.201Z,4.70
2023-10-15T01:35:02.723Z,10.50
2023-10-15T01:37:31.769Z,5.30
2023-10-15T01:40:17.326Z,8.20
2023-10-15T01:42:53.152Z,8.80
2023-10-15T01:45:33.286Z,6.80
2023-10-15T01:48:07.011Z,9.10
2023-10-15T01:50:45.446Z,12.10
2023-10-15T01:53:13.843Z,6.20
2023-10-15T01:55:54.664Z,7.30
2023-10-15T01:58:25.920Z,6.30
2023-10-15T02:00:54.381Z,6.70
2023-10-15T02:03:22.702Z,7.40
2023-10-15T02:05:55.548Z,6.00
2023-10-15T02:08:26.741Z,7.80
2023-10-15T02:10:59.813Z,6.20
2023-10-15T02:13:29.027Z,7.00
2023-10-15T02:15:57.730Z,6.90
2023-10-15T02:18:31.176Z,7.90
2023-10-15T02:20:59.562Z,7.40
2023-10-15T02:23:28.596Z,5.80
2023-10-15T02:26:00.865Z,10.20
2023-10-15T02:28:33.569Z,5.00
2023-10-15T02:31:05.959Z,8.40
2023-10-15T02:33:34.376Z,7.00
2023-10-15T02:36:08.629Z,9.00
2023-10-15T02:38:53.549Z,10.70
2023-10-15T02:41:44.286Z,8.10
2023-10-15T02:44:15.337Z,5.40
2023-10-15T02:46:49.480Z,9.70
2023-10-15T02:49:18.506Z,11.10
2023-10-15T02:51:50.002Z,7.90
2023-10-15T02:54:41.533Z,12.00
2023-10-15T02:57:16.403Z,6.90
2023-10-15T02:59:51.883Z,12.50
2023-10-15T03:02:26.989Z,12.70
2023-10-15T03:05:07.361Z,8.10
2023-10-15T03:07:35.556Z,10.80
2023-10-15T03:10:05.009Z,8.50
2023-10-15T03:12:35.060Z,17.00
2023-10-15T03:15:05.195Z,10.50
2023-10-15T03:17:42.014Z,7.60
2023-10-15T03:20:17.576Z,9.30
2023-10-15T03:22:53.064Z,5.30
2023-10-15T03:25:22.172Z,5.70
2023-10-15T03:27:55.319Z,5.60
2023-10-15T03:30:25.074Z,8.60
2023-10-15T03:32:54.193Z,8.30
2023-10-15T03:35:40.688Z,6.90
2023-10-15T03:38:15.381Z,6.70
2023-10-15T03:40:51.655Z,8.50
2023-10-15T03:43:22.930Z,7.90
2023-10-15T03:45:54.613Z,8.60
2023-10-15T03:48:29.607Z,9.40
2023-10-15T03:50:59.771Z,5.80
2023-10-15T03:53:29.661Z,6.60
2023-10-15T03:56:02.832Z,7.40
2023-10-15T03:58:34.103Z,5.80
2023-10-15T04:01:14.935Z,11.50
2023-10-15T04:03:44.726Z,11.70
2023-10-15T04:06:15.043Z,6.60
2023-10-15T04:09:02.855Z,8.60
2023-10-15T04:11:44.321Z,9.40
2023-10-15T04:14:15.629Z,10.10
2023-10-15T04:16:44.997Z,10.70
2023-10-15T04:19:17.841Z,10.50
2023-10-15T04:21:46.695Z,11.00
2023-10-15T04:24:15.767Z,8.30
2023-10-15T04:26:45.645Z,8.10
2023-10-15T04:29:20.018Z,8.70
2023-10-15T04:32:02.105Z,8.50
2023-10-15T04:34:32.775Z,6.90
2023-10-15T04:37:08.386Z,7.90
2023-10-15T04:39:52.724Z,9.30
2023-10-15T04:42:30.416Z,10.30
2023-10-15T04:45:01.278Z,9.10
2023-10-15T04:47:39.118Z,7.40
2023-10-15T04:50:16.324Z,4.60
2023-10-15T04:52:44.960Z,5.50
2023-10-15T04:55:18.436Z,5.10
2023-10-15T04:57:47.065Z,8.40
2023-10-15T05:00:18.218Z,8.10
2023-10-15T05:02:46.488Z,7.80
2023-10-15T05:05:14.802Z,7.20
2023-10-15T05:07:43.123Z,7.60
2023-10-15T05:10:11.431Z,6.70
2023-10-15T05:12:39.728Z,8.00
2023-10-15T05:15:14.539Z,8.10
2023-10-15T05:17:44.894Z,10.00
2023-10-15T05:20:14.899Z,5.50
2023-10-15T05:22:43.195Z,7.60
2023-10-15T05:25:18.765Z,6.20
2023-10-15T05:27:53.085Z,6.80
2023-10-15T05:30:21.281Z,5.40
2023-10-15T05:32:49.840Z,6.50
2023-10-15T05:35:19.298Z,11.20
2023-10-15T05:37:47.524Z,7.50
2023-10-15T05:40:18.212Z,8.10
2023-10-15T05:42:46.491Z,6.70
2023-10-15T05:45:26.218Z,6.50
2023-10-15T05:48:05.381Z,6.90
2023-10-15T05:50:33.502Z,5.70
2023-10-15T05:53:01.938Z,7.80
2023-10-15T05:55:30.548Z,9.20
2023-10-15T05:57:59.824Z,8.50
2023-10-15T06:00:28.186Z,12.10
2023-10-15T06:02:58.327Z,8.70
2023-10-15T06:05:28.740Z,10.60
2023-10-15T06:07:56.921Z,9.90
2023-10-15T06:10:25.144Z,10.40
2023-10-15T06:12:53.387Z,7.60
2023-10-15T06:15:23.768Z,6.20
2023-10-15T06:17:53.768Z,8.20
2023-10-15T06:20:22.167Z,9.50
2023-10-15T06:22:56.467Z,10.00
2023-10-15T06:25:25.914Z,8.70
2023-10-15T06:27:54.462Z,8.00
2023-10-15T06:30:24.883Z,7.80
2023-10-15T06:32:56.393Z,5.70
2023-10-15T06:35:27.070Z,6.60
2023-10-15T06:37:59.600Z,6.60
2023-10-15T06:40:29.973Z,7.60
2023-10-15T06:43:05.092Z,13.40
2023-10-15T06:45:34.784Z,10.20
2023-10-15T06:48:04.235Z,5.80
2023-10-15T06:50:32.601Z,7.60
2023-10-15T06:53:06.753Z,9.40
2023-10-15T06:55:36.465Z,8.00
2023-10-15T06:58:04.831Z,8.00
2023-10-15T07:00:33.316Z,7.20
2023-10-15T07:03:01.946Z,6.10
2023-10-15T07:05:30.184Z,5.50
2023-10-15T07:07:58.811Z,7.90
2023-10-15T07:10:27.690Z,10.10
2023-10-15T07:12:58.563Z,11.00
2023-10-15T07:15:27.153Z,9.30
2023-10-15T07:17:56.070Z,6.90
2023-10-15T07:20:28.980Z,4.70
2023-10-15T07:23:01.661Z,8.50
2023-10-15T07:25:30.607Z,5.30
2023-10-15T07:28:00.829Z,7.30
2023-10-15T07:30:32.220Z,6.60
2023-10-15T07:33:00.887Z,8.90
2023-10-15T07:35:31.038Z,5.80
2023-10-15T07:38:03.701Z,5.60
2023-10-15T07:40:34.649Z,4.30
2023-10-15T07:43:04.339Z,5.90
2023-10-15T07:45:34.287Z,4.80
2023-10-15T07:48:05.158Z,6.50
2023-10-15T07:50:35.743Z,7.50
2023-10-15T07:53:05.780Z,4.50
2023-10-15T07:55:34.753Z,9.00
2023-10-15T07:58:03.450Z,4.60
2023-10-15T08:00:32.443Z,5.70
2023-10-15T08:03:02.732Z,5.40
2023-10-15T08:05:34.299Z,7.20
2023-10-15T08:08:06.153Z,3.80
2023-10-15T08:10:36.984Z,7.40
2023-10-15T08:13:08.452Z,6.60
2023-10-15T08:15:37.670Z,6.20
2023-10-15T08:18:06.514Z,9.30
2023-10-15T08:20:34.916Z,4.60
2023-10-15T08:23:03.514Z,6.00
2023-10-15T08:25:35.595Z,9.10
2023-10-15T08:28:05.148Z,6.60
2023-10-15T08:30:34.490Z,6.80
2023-10-15T08:33:05.170Z,4.60
2023-10-15T08:35:34.338Z,9.80
2023-10-15T08:38:02.694Z,7.70
2023-10-15T08:40:40.694Z,11.70
2023-10-15T08:43:25.404Z,9.10
2023-10-15T08:45:54.361Z,7.00
2023-10-15T08:48:26.694Z,8.60
2023-10-15T08:50:58.848Z,7.70
2023-10-15T08:53:28.550Z,11.90
2023-10-15T08:55:59.128Z,8.70
2023-10-15T08:58:27.816Z,10.30
2023-10-15T09:00:58.858Z,10.80
2023-10-15T09:03:28.178Z,10.50
2023-10-15T09:05:57.823Z,8.10
2023-10-15T09:08:26.308Z,8.90
2023-10-15T09:10:54.710Z,11.00
2023-10-15T09:13:23.731Z,9.00
2023-10-15T09:15:57.066Z,6.60
2023-10-15T09:18:29.075Z,6.00
2023-10-15T09:21:00.046Z,5.40
2023-10-15T09:23:32.380Z,6.90
2023-10-15T09:26:00.828Z,5.40
2023-10-15T09:28:30.269Z,6.80
2023-10-15T09:31:10.778Z,6.90
2023-10-15T09:33:40.563Z,6.40
2023-10-15T09:36:09.239Z,5.90
2023-10-15T09:38:38.346Z,7.40
2023-10-15T09:41:11.559Z,6.90
2023-10-15T09:43:40.077Z,6.50
2023-10-15T09:46:08.934Z,5.20
2023-10-15T09:48:39.029Z,7.40
2023-10-15T09:51:11.065Z,8.10
2023-10-15T09:53:43.432Z,5.30
2023-10-15T09:56:14.391Z,6.50
2023-10-15T09:58:44.432Z,5.90
2023-10-15T10:01:29.963Z,8.50
2023-10-15T10:04:17.884Z,6.30
2023-10-15T10:06:48.895Z,13.60
2023-10-15T10:09:55.367Z,10.30
2023-10-15T10:13:00.336Z,8.90
2023-10-15T10:15:37.527Z,9.80
2023-10-15T10:18:06.935Z,8.10
2023-10-15T10:20:38.863Z,6.80
2023-10-15T10:23:08.924Z,8.10
2023-10-15T10:25:43.884Z,6.80
2023-10-15T10:28:17.260Z,4.70
2023-10-15T10:30:57.210Z,8.50
2023-10-15T10:33:43.906Z,5.50
2023-10-15T10:36:19.404Z,11.60
2023-10-15T10:39:09.778Z,7.10
2023-10-15T10:41:43.045Z,7.90
2023-10-15T10:44:40.246Z,7.40
2023-10-15T10:47:23.724Z,7.90
2023-10-15T10:49:57.803Z,6.30
2023-10-15T10:52:30.769Z,9.10
2023-10-15T10:55:32.471Z,10.10
2023-10-15T10:58:08.269Z,6.80
2023-10-15T11:00:36.517Z,6.70
2023-10-15T11:03:08.320Z,7.80
2023-10-15T11:05:37.348Z,8.10
2023-10-15T11:08:16.992Z,5.90
2023-10-15T11:10:46.973Z,7.60
2023-10-15T11:13:16.928Z,6.90
2023-10-15T11:15:46.219Z,4.60
2023-10-15T11:18:21.633Z,5.00
2023-10-15T11:20:51.820Z,5.60
2023-10-15T11:23:25.386Z,5.30
2023-10-15T11:25:57.830Z,8.80
2023-10-15T11:28:26.178Z,5.10
2023-10-15T11:30:55.177Z,5.60
2023-10-15T11:33:24.335Z,5.80
2023-10-15T11:35:55.285Z,7.80
2023-10-15T11:38:33.266Z,6.40
2023-10-15T11:41:03.536Z,9.10
2023-10-15T11:43:33.848Z,5.50
2023-10-15T11:46:09.280Z,8.10
2023-10-15T11:48:39.083Z,7.20
2023-10-15T11:51:09.592Z,6.30
2023-10-15T11:53:42.411Z,7.50
2023-10-15T11:56:18.214Z,9.20
2023-10-15T11:58:47.032Z,5.90
2023-10-15T12:01:16.456Z,7.50
2023-10-15T12:03:44.945Z,6.30
2023-10-15T12:06:14.003Z,7.40
2023-10-15T12:08:42.138Z,7.30
2023-10-15T12:11:10.300Z,10.50
2023-10-15T12:13:40.913Z,10.70
2023-10-15T12:16:09.270Z,10.20
2023-10-15T12:18:37.735Z,4.70
2023-10-15T12:21:07.365Z,4.30
2023-10-15T12:23:35.562Z,5.80
2023-10-15T12:26:08.893Z,7.70
2023-10-15T12:28:48.422Z,5.00
2023-10-15T12:31:16.855Z,7.50
2023-10-15T12:33:45.152Z,6.10
2023-10-15T12:36:14.124Z,8.00
2023-10-15T12:38:44.064Z,8.70
2023-10-15T12:41:12.417Z,7.20
2023-10-15T12:43:41.776Z,8.80
2023-10-15T12:46:09.989Z,7.80
2023-10-15T12:48:38.131Z,5.90
2023-10-15T12:51:06.345Z,14.80
2023-10-15T12:53:34.471Z,5.70
2023-10-15T12:56:02.573Z,8.90
2023-10-15T12:58:30.812Z,7.60
2023-10-15T13:00:59.585Z,5.40
2023-10-15T13:03:28.861Z,5.00
2023-10-15T13:05:57.073Z,4.40
2023-10-15T13:08:25.255Z,6.40
2023-10-15T13:10:54.199Z,4.50
2023-10-15T13:13:22.383Z,4.70
2023-10-15T13:15:50.659Z,4.20
2023-10-15T13:18:18.945Z,3.50
2023-10-15T13:20:47.213Z,6.00
2023-10-15T13:23:15.717Z,3.40
2023-10-15T13:25:43.919Z,8.40
2023-10-15T13:28:13.024Z,3.00
2023-10-15T13:30:41.442Z,4.20
2023-10-15T13:33:10.942Z,6.40
2023-10-15T13:35:39.554Z,5.10
2023-10-15T13:38:09.826Z,5.40
2023-10-15T13:40:40.106Z,4.40
2023-10-15T13:43:09.834Z,6.40
2023-10-15T13:45:39.306Z,7.40
2023-10-15T13:48:07.607Z,6.20
2023-10-15T13:50:36.542Z,4.90
2023-10-15T13:53:05.160Z,4.60
2023-10-15T13:55:34.291Z,4.80
2023-10-15T13:58:02.547Z,5.30
2023-10-15T14:00:32.921Z,5.80
2023-10-15T14:03:01.496Z,4.70
2023-10-15T14:05:34.140Z,6.70
2023-10-15T14:08:02.661Z,5.80
2023-10-15T14:10:31.942Z,4.10
2023-10-15T14:13:13.543Z,3.30
2023-10-15T14:15:45.343Z,3.80
2023-10-15T14:18:13.730Z,5.80
2023-10-15T14:20:41.982Z,3.90
2023-10-15T14:23:10.799Z,4.60
2023-10-15T14:25:39.499Z,4.10
2023-10-15T14:28:07.584Z,6.20
2023-10-15T14:30:36.998Z,7.80
2023-10-15T14:33:05.175Z,5.80
2023-10-15T14:35:35.286Z,3.00
2023-10-15T14:38:04.110Z,4.30
2023-10-15T14:40:33.242Z,2.60
2023-10-15T14:43:01.377Z,2.70
2023-10-15T14:45:29.549Z,3.70
2023-10-15T14:47:57.680Z,2.70
2023-10-15T14:50:26.617Z,2.70
2023-10-15T14:52:54.776Z,2.70
2023-10-15T14:55:23.148Z,3.60
2023-10-15T14:57:51.471Z,3.20
2023-10-15T15:00:19.965Z,3.80
2023-10-15T15:02:48.178Z,2.50
2023-10-15T15:05:17.664Z,2.60
2023-10-15T15:07:45.945Z,3.50
2023-10-15T15:10:16.469Z,3.90
2023-10-15T15:12:45.124Z,3.20
2023-10-15T15:15:17.666Z,4.50
2023-10-15T15:17:46.053Z,3.50
2023-10-15T15:20:14.253Z,5.00
2023-10-15T15:22:43.267Z,4.50
2023-10-15T15:25:11.982Z,3.80
2023-10-15T15:27:42.855Z,3.20
2023-10-15T15:30:11.697Z,2.80
2023-10-15T15:32:40.025Z,2.80
2023-10-15T15:35:09.073Z,3.40
2023-10-15T15:37:37.539Z,2.30
2023-10-15T15:40:06.613Z,2.30
2023-10-15T15:42:34.760Z,1.40
2023-10-15T15:45:02.894Z,2.60
2023-10-15T15:47:31.118Z,2.10
2023-10-15T15:49:59.344Z,1.60
2023-10-15T15:52:27.622Z,2.40
2023-10-15T15:54:57.296Z,2.50
2023-10-15T15:57:25.455Z,2.40
2023-10-15T15:59:53.583Z,2.60
2023-10-15T16:02:21.852Z,2.70
2023-10-15T16:04:50.242Z,1.60
2023-10-15T16:07:18.519Z,3.10
2023-10-15T16:09:46.857Z,2.50
2023-10-15T16:12:15.087Z,3.10
2023-10-15T16:14:43.223Z,3.40
2023-10-15T16:17:11.548Z,2.60
2023-10-15T16:19:40.432Z,3.40
2023-10-15T16:22:09.825Z,3.10
2023-10-15T16:24:38.095Z,2.60
2023-10-15T16:27:06.241Z,4.50
2023-10-15T16:29:36.831Z,2.70
2023-10-15T16:32:06.689Z,7.90
2023-10-15T16:34:35.052Z,4.60
2023-10-15T16:37:03.277Z,4.70
2023-10-15T16:39:31.417Z,4.20
2023-10-15T16:42:00.500Z,8.60
2023-10-15T16:44:28.915Z,5.70
2023-10-15T16:46:57.884Z,5.80
2023-10-15T16:49:26.308Z,5.50
2023-10-15T16:51:55.613Z,4.10
2023-10-15T16:54:24.035Z,6.20
2023-10-15T16:56:52.443Z,5.40
2023-10-15T16:59:21.774Z,4.50
2023-10-15T17:01:50.462Z,4.00
2023-10-15T17:04:18.661Z,6.60
2023-10-15T17:06:46.897Z,6.50
2023-10-15T17:09:15.148Z,6.00
2023-10-15T17:11:43.400Z,6.10
2023-10-15T17:14:11.699Z,8.20
2023-10-15T17:16:39.812Z,5.30
2023-10-15T17:19:07.980Z,5.60
2023-10-15T17:21:36.119Z,6.20
2023-10-15T17:24:04.654Z,6.90
2023-10-15T17:26:33.507Z,7.70
2023-10-15T17:29:05.175Z,4.30
2023-10-15T17:31:33.336Z,8.30
2023-10-15T17:34:02.712Z,6.00
2023-10-15T17:36:35.687Z,7.00
2023-10-15T17:39:12.499Z,6.60
2023-10-15T17:41:40.618Z,5.70
2023-10-15T17:44:08.876Z,4.90
2023-10-15T17:46:37.147Z,6.10
2023-10-15T17:49:05.613Z,6.00
2023-10-15T17:51:34.262Z,8.00
2023-10-15T17:54:02.450Z,5.80
2023-10-15T17:56:32.537Z,6.30
2023-10-15T17:59:01.062Z,5.90
2023-10-15T18:01:29.400Z,6.00
2023-10-15T18:03:57.700Z,8.20
2023-10-15T18:06:26.137Z,6.00
2023-10-15T18:08:54.353Z,6.40
2023-10-15T18:11:22.703Z,7.30
2023-10-15T18:13:50.930Z,8.60
2023-10-15T18:16:19.679Z,10.30
2023-10-15T18:18:48.524Z,5.40
2023-10-15T18:21:17.707Z,9.40
2023-10-15T18:23:46.428Z,5.70
2023-10-15T18:26:14.548Z,6.60
2023-10-15T18:28:43.131Z,7.70
2023-10-15T18:31:11.328Z,6.90
2023-10-15T18:33:39.514Z,9.30
2023-10-15T18:36:08.019Z,7.60
2023-10-15T18:38:36.188Z,4.80
2023-10-15T18:41:05.322Z,8.20
2023-10-15T18:43:35.689Z,9.10
2023-10-15T18:46:05.697Z,6.00
2023-10-15T18:48:36.536Z,7.60
2023-10-15T18:51:15.752Z,8.60
2023-10-15T18:53:52.925Z,10.20
2023-10-15T18:56:21.033Z,5.20
2023-10-15T18:58:49.936Z,9.40
2023-10-15T19:01:21.174Z,6.50
2023-10-15T19:03:49.781Z,7.80
2023-10-15T19:06:18.317Z,8.50
2023-10-15T19:08:47.003Z,9.00
2023-10-15T19:11:15.214Z,9.00
2023-10-15T19:13:44.199Z,7.60
2023-10-15T19:16:12.336Z,6.30
2023-10-15T19:18:43.281Z,4.50
2023-10-15T19:21:12.089Z,6.60
2023-10-15T19:23:40.491Z,4.70
2023-10-15T19:26:10.155Z,5.20
2023-10-15T19:28:39.436Z,3.60
2023-10-15T19:31:09.178Z,6.30
2023-10-15T19:33:37.533Z,3.50
2023-10-15T19:36:06.035Z,4.10
2023-10-15T19:38:34.260Z,3.10
2023-10-15T19:41:05.556Z,3.60
2023-10-15T19:43:33.729Z,5.30
2023-10-15T19:46:05.318Z,3.50
2023-10-15T19:48:34.970Z,4.00
2023-10-15T19:51:04.320Z,3.50
2023-10-15T19:53:32.542Z,5.10
2023-10-15T19:56:00.949Z,5.40
2023-10-15T19:58:29.457Z,3.20
2023-10-15T20:00:59.341Z,5.30
2023-10-15T20:03:28.368Z,2.80
2023-10-15T20:05:58.962Z,4.40
2023-10-15T20:08:27.127Z,3.70
2023-10-15T20:10:55.538Z,3.30
2023-10-15T20:13:23.745Z,4.50
2023-10-15T20:15:52.060Z,3.20
2023-10-15T20:18:20.303Z,2.70
2023-10-15T20:20:48.580Z,4.70
2023-10-15T20:23:16.671Z,5.00
2023-10-15T20:25:45.360Z,2.20
2023-10-15T20:28:14.130Z,4.60
2023-10-15T20:30:42.316Z,4.40
2023-10-15T20:33:10.539Z,4.80
2023-10-15T20:35:39.064Z,3.60
2023-10-15T20:38:07.669Z,2.70
2023-10-15T20:40:35.809Z,2.50
2023-10-15T20:43:04.094Z,3.70
2023-10-15T20:45:32.598Z,2.70
2023-10-15T20:48:00.919Z,4.70
2023-10-15T20:50:29.142Z,4.10
2023-10-15T20:52:59.475Z,3.10
2023-10-15T20:55:27.837Z,1.90
2023-10-15T20:57:55.997Z,4.10
2023-10-15T21:00:25.131Z,3.30
2023-10-15T21:02:54.690Z,3.10
2023-10-15T21:05:23.199Z,3.50
2023-10-15T21:07:51.839Z,3.00
2023-10-15T21:10:23.375Z,4.00
2023-10-15T21:12:52.267Z,2.60
2023-10-15T21:15:20.725Z,3.20
2023-10-15T21:17:48.952Z,2.30
2023-10-15T21:20:17.400Z,2.30
2023-10-15T21:22:45.543Z,6.50
2023-10-15T21:25:14.304Z,3.80
2023-10-15T21:27:43.153Z,2.60
2023-10-15T21:30:13.514Z,3.10
2023-10-15T21:32:41.875Z,3.40
2023-10-15T21:35:11.173Z,3.40
2023-10-15T21:37:42.516Z,3.80
2023-10-15T21:40:16.518Z,5.10
2023-10-15T21:42:44.887Z,3.20
2023-10-15T21:45:13.368Z,2.80
2023-10-15T21:47:43.591Z,3.50
2023-10-15T21:50:17.668Z,2.30
2023-10-15T21:52:48.829Z,3.00
2023-10-15T21:55:16.965Z,2.60
2023-10-15T21:57:45.265Z,2.10
2023-10-15T22:00:49.302Z,3.40
2023-10-15T22:03:18.344Z,2.30
2023-10-15T22:05:46.641Z,3.30
2023-10-15T22:08:14.800Z,4.30
2023-10-15T22:10:44.162Z,2.90
2023-10-15T22:13:19.257Z,2.10
2023-10-15T22:15:53.425Z,2.30
2023-10-15T22:18:24.458Z,2.30
2023-10-15T22:20:53.861Z,5.60
2023-10-15T22:23:22.611Z,3.30
2023-10-15T22:25:53.080Z,1.90
2023-10-15T22:28:26.668Z,3.30
2023-10-15T22:30:56.578Z,3.80
2023-10-15T22:33:27.825Z,3.30
2023-10-15T22:35:56.113Z,4.00
2023-10-15T22:38:24.299Z,2.30
2023-10-15T22:40:56.767Z,2.50
2023-10-15T22:43:25.549Z,2.60
2023-10-15T22:45:53.803Z,3.40
2023-10-15T22:48:22.185Z,3.10
2023-10-15T22:50:50.628Z,3.00
2023-10-15T22:53:18.725Z,2.50
2023-10-15T22:55:47.752Z,2.70
2023-10-15T22:58:19.402Z,2.30
2023-10-15T23:00:51.909Z,3.20
2023-10-15T23:03:20.909Z,3.40
2023-10-15T23:05:50.557Z,3.00
2023-10-15T23:08:19.762Z,3.90
2023-10-15T23:10:48.042Z,2.90
2023-10-15T23:13:19.037Z,3.60
2023-10-15T23:15:47.477Z,6.00
2023-10-15T23:18:18.378Z,2.80
2023-10-15T23:20:52.540Z,3.50
2023-10-15T23:23:22.756Z,3.00
2023-10-15T23:25:53.524Z,2.10
2023-10-15T23:28:25.259Z,2.50
2023-10-15T23:30:57.924Z,1.70
2023-10-15T23:33:30.267Z,3.80
2023-10-15T23:35:59.756Z,1.50
2023-10-15T23:38:28.079Z,2.90
2023-10-15T23:40:56.236Z,2.30
2023-10-15T23:43:25.546Z,2.10
2023-10-15T23:45:57.004Z,3.20
2023-10-15T23:48:29.068Z,1.60
2023-10-15T23:50:58.661Z,1.80
2023-10-15T23:53:36.037Z,1.30
2023-10-15T23:56:14.643Z,1.90
2023-10-15T23:58:59.294Z,1.80
